Airfield :
LOGIN :

Register | Disclaimer

   EN    FR    IT 

 










Legend :    VFR   Marginal VFR   IFR   Intensive IFR   Very Intensive IFR
Visi :
Ceiling :
>= 8 km
>= 3000ft
5 to 8 km
1000 to 3000 ft
1500m to 5 km
500 to 1000 ft
800 to 1500m
200 to 500 ft
< 800m
< 200 ft
Symbols :   Thunderstorms  Fog  Heavy snow  Heavy precipitations  Wind > 20 kt
SIGMETs :     Misc.  Thunderstorms  Icing  Turbulence  Mountain Waves  Volcanic Ashes







- Airport Elevation : 122 ft
- IATA code : TXL


EDDT - Berlin Tegel Int.

CURRENT METAR :
  • 220350Z 14009KT 9999 BKN008 M00/M02 Q1014 R88/190095 BECMG BKN010

EXPIRED METARs :
  • 220320Z 15008KT 9000 OVC007 M00/M01 Q1015 R88/190095
  • 220250Z 15009KT 9000 OVC007 M00/M02 Q1015 R88/190095
  • 220220Z 14011KT 9999 OVC008 M00/M02 Q1015 R88/190095
  • 220150Z 15010KT 120V180 9999 OVC008 M00/M02 Q1016 R88/190095
  • 220120Z 15007KT 9999 OVC008 M00/M02 Q1016 R88/190095

TAF TAF EDDT
Valid from the 22 at 00:00 until the 23 at 00:00 UTC


212300Z 2200/2224 13008KT 6000 BKN010
TEMPO 2200/2206 3000 BR BKN004
PROB30
TEMPO 2202/2206 SCT010
BECMG 2206/2209 SCT010
BECMG 2213/2216 OVC010
TEMPO 2215/2224 2500 -SN BKN005
No reported NOTAMs for that airfield.
1 SIGMET reported for the Bremen FIR (EDWW) :
 
Severe icing
EDWW SIGMET 1 VALID 220100/220500 EDZH
EDWW BREMEN FIR SEV ICE FCST W OF E00800 3000FT/FL120 MOV E NC=



MET'MAP, your aeronautical weather chart ! - Copyright ORBIFLY December 2007 - Disclaimer

ORBIFLY MET'MAP TEAM :

Programming & Development : Alexandra Zaïnal
Concept & Development : Baudouin d'Aumeries
Co-Development & Prog : Marc-Olivier Méhu
Technical & hardware support : Manuel Goepfert

Contact : metmap@orbifly.com




SOURCES & CREDITS :

   NOAA